Terminal Aerodrome Forecast
Issued by NWS Spokane, WA

Home | Current Version | Previous Version | Text Only | Print | Product List | Glossary On
Versions: 1 2 3 4 5 6 7 8 9 10 11 12 13 14 15 16 17 18 19 20 21 22 23 24 25 26 27 28 29 30 31
000
FTUS46 KOTX 020520
TAFEAT
TAF
KEAT 020520Z 0206/0306 10003KT P6SM OVC150
     FM020700 33005KT P6SM OVC150
     FM021300 33006KT P6SM VCSH SCT090 OVC150
     FM021900 34012KT P6SM SCT150
     FM030500 33017G25KT P6SM SCT150=

USA.gov is the U.S. government's official web portal to all federal, state and local government web resources and services.